Wild Orchid 1 — 9HB2165 — position and weather

sailwx.info

Track history (hours):
 
Tides and Currents Weather Stations Pressure Air Temp Water Temp Dewpoint Dewpoint Depression Visibility Wind Speed Wind Dir Waves Ship Positions

Wild Orchid 1

Last reported at 2017-Sep-15 15:06 UTC. Time now 2017-Sep-23 04:12 UTC.
Position N 43°32' E 007°07'.

Length 45 m; draft 2.8 m.

Type: Pleasure craft. MMSI: 215586000.

Date/timePositionNaut miles runAvg speedWind from/ knotsBaromVisibWave heightAir tempDewpointWater temp
2017-Sep-15 15:06N 43°32' E 007°07'113.4
2017-Sep-15 15:00N 43°32' E 007°09'6012.8
2017-Sep-15 10:18N 43°31' E 008°32'1710.9
2017-Sep-15 08:46N 43°19' E 008°49'310.9
2017-Sep-15 08:30N 43°17' E 008°52'610.8
2017-Sep-15 07:58N 43°14' E 008°59'4 7.7
2017-Sep-15 07:29N 43°11' E 009°02'5 9.5
2017-Sep-15 07:00N 43°09' E 009°07'1811.6
2017-Sep-15 05:28N 43°01' E 009°29'3 5.7
2017-Sep-15 04:56N 42°58' E 009°27'0 0.0
2017-Sep-15 04:28N 42°58' E 009°27'0 0.0
2017-Sep-15 03:26N 42°58' E 009°27'0 0.0
2017-Sep-15 03:00N 42°58' E 009°27'0 0.0
2017-Sep-15 02:11N 42°58' E 009°27'0 0.0
2017-Sep-15 01:49N 42°58' E 009°27'0 0.0
2017-Sep-15 01:17N 42°58' E 009°27'0 0.0
2017-Sep-15 00:45N 42°58' E 009°27'0 0.0
2017-Sep-15 00:29N 42°58' E 009°28'40011.0
2017-Sep-13 12:16N 38°15' E 015°40'310.4
2017-Sep-13 12:00N 38°14' E 015°37'  
2017-Sep-09 23:29N 37°46' E 015°47'813.0
2017-Sep-09 22:53N 37°47' E 015°57'33712.1
2017-Sep-08 19:00N 37°54' E 023°04'713.2
2017-Sep-08 18:30N 37°52' E 023°12'713.0
2017-Sep-08 18:00N 37°51' E 023°20'612.9
2017-Sep-08 17:31N 37°50' E 023°28'611.9
2017-Sep-08 17:01N 37°52' E 023°35'5 9.2
2017-Sep-08 16:30N 37°56' E 023°39'1 1.1
2017-Sep-08 15:59N 37°56' E 023°39'0 0.0
2017-Sep-08 15:29N 37°56' E 023°39'0 0.0
2017-Sep-08 14:59N 37°56' E 023°39'0 0.0
2017-Sep-08 14:29N 37°56' E 023°39'0 0.0
2017-Sep-08 13:56N 37°56' E 023°39'0 0.0
2017-Sep-08 13:26N 37°56' E 023°39'0 0.0
2017-Sep-08 12:53N 37°56' E 023°39'0 0.0
2017-Sep-08 12:29N 37°56' E 023°39'0 0.0
2017-Sep-08 11:59N 37°56' E 023°39'0 0.0
2017-Sep-08 11:29N 37°56' E 023°39'0 0.0
2017-Sep-08 10:59N 37°56' E 023°39'0 0.0
2017-Sep-08 10:29N 37°56' E 023°39'0 0.0
2017-Sep-08 09:59N 37°56' E 023°39'0 0.0
2017-Sep-08 09:26N 37°56' E 023°39'0 0.0
2017-Sep-08 08:59N 37°56' E 023°39'0 0.0
2017-Sep-08 08:29N 37°56' E 023°39'0 0.0
2017-Sep-08 07:59N 37°56' E 023°39'0 0.0
2017-Sep-08 07:29N 37°56' E 023°39'0 0.0
2017-Sep-08 06:59N 37°56' E 023°39'0 0.0
2017-Sep-08 06:29N 37°56' E 023°39'0 0.0
2017-Sep-08 05:59N 37°56' E 023°39'0 0.0
2017-Sep-08 05:29N 37°56' E 023°39'0 0.0
2017-Sep-08 04:59N 37°56' E 023°39'0 0.0
2017-Sep-08 04:29N 37°56' E 023°39'0 0.0
2017-Sep-08 03:59N 37°56' E 023°39'0 0.0
2017-Sep-08 03:29N 37°56' E 023°39'0 0.0
2017-Sep-08 02:59N 37°56' E 023°39'0 0.0
2017-Sep-08 02:29N 37°56' E 023°39'0 0.0
2017-Sep-08 01:59N 37°56' E 023°39'0 0.0
2017-Sep-08 01:29N 37°56' E 023°39'0 0.0
2017-Sep-08 00:59N 37°56' E 023°39'0 0.0
2017-Sep-08 00:29N 37°56' E 023°39'0 0.0
2017-Sep-07 23:59N 37°56' E 023°39'0 0.0
2017-Sep-07 23:29N 37°56' E 023°39'0 0.0
2017-Sep-07 22:59N 37°56' E 023°39'0 0.0
2017-Sep-07 22:29N 37°56' E 023°39'0 0.0
2017-Sep-07 21:59N 37°56' E 023°39'0 0.0
2017-Sep-07 21:29N 37°56' E 023°39'0 0.0
2017-Sep-07 20:59N 37°56' E 023°39'0 0.0
2017-Sep-07 20:29N 37°56' E 023°39'0 0.0
2017-Sep-07 19:56N 37°56' E 023°39'0 0.0
2017-Sep-07 19:29N 37°56' E 023°39'0 0.0
2017-Sep-07 18:59N 37°56' E 023°39'0 0.0
2017-Sep-07 18:29N 37°56' E 023°39'0 0.0
2017-Sep-07 17:59N 37°56' E 023°39'0 0.0
2017-Sep-07 17:29N 37°56' E 023°39'0 0.0
2017-Sep-07 16:59N 37°56' E 023°39'0 0.0
2017-Sep-07 16:29N 37°56' E 023°39'0 0.0
2017-Sep-07 15:59N 37°56' E 023°39'0 0.0
2017-Sep-07 15:30N 37°56' E 023°39'0 0.0
2017-Sep-07 15:00N 37°56' E 023°39'0 0.0
2017-Sep-07 14:30N 37°56' E 023°39'0 0.0
2017-Sep-07 14:00N 37°56' E 023°39'1 1.4
2017-Sep-07 13:30N 37°55' E 023°39'611.1
2017-Sep-07 13:00N 37°50' E 023°36'612.8
2017-Sep-07 12:30N 37°44' E 023°35'713.2
2017-Sep-07 12:00N 37°37' E 023°34'612.8
2017-Sep-07 11:30N 37°31' E 023°34'611.8
2017-Sep-07 11:00N 37°26' E 023°32'5 0.2
2017-Sep-06 06:28N 37°30' E 023°34'612.6
2017-Sep-06 06:00N 37°36' E 023°34'612.4
2017-Sep-06 05:31N 37°42' E 023°35'612.7
2017-Sep-06 05:01N 37°49' E 023°35'612.5
2017-Sep-06 04:31N 37°55' E 023°38'2 2.9
2017-Sep-06 04:00N 37°56' E 023°39'0 0.0
2017-Sep-06 03:30N 37°56' E 023°39'0 0.0
2017-Sep-06 03:00N 37°56' E 023°39'0 0.0
2017-Sep-06 02:29N 37°56' E 023°39'0 0.0
2017-Sep-06 01:59N 37°56' E 023°39'0 0.0
2017-Sep-06 01:29N 37°56' E 023°39'0 0.0
2017-Sep-06 01:00N 37°56' E 023°39'0 0.0
2017-Sep-06 00:30N 37°56' E 023°39'0 0.0
2017-Sep-06 00:00N 37°56' E 023°39'0 0.0
2017-Sep-05 23:30N 37°56' E 023°39'0 0.0
2017-Sep-05 22:59N 37°56' E 023°39'0 0.0
2017-Sep-05 22:29N 37°56' E 023°39'0 0.0
2017-Sep-05 21:59N 37°56' E 023°39'0 0.0
2017-Sep-05 21:29N 37°56' E 023°39'0 0.0
2017-Sep-05 20:59N 37°56' E 023°39'0 0.0
2017-Sep-05 20:29N 37°56' E 023°39'0 0.0
2017-Sep-05 20:00N 37°56' E 023°39'0 0.0
2017-Sep-05 19:29N 37°56' E 023°39'0 0.0
2017-Sep-05 18:59N 37°56' E 023°39'0 0.0
2017-Sep-05 18:29N 37°56' E 023°39'0 0.0
2017-Sep-05 17:59N 37°56' E 023°39'0 0.0
2017-Sep-05 17:29N 37°56' E 023°39'0 0.0
2017-Sep-05 17:00N 37°56' E 023°39'0 0.0
2017-Sep-05 16:29N 37°56' E 023°39'0 0.0
2017-Sep-05 15:59N 37°56' E 023°39'0 0.0
2017-Sep-05 15:29N 37°56' E 023°39'  
Track history (hours):
 
Tides and Currents Weather Stations Pressure Air Temp Water Temp Dewpoint Dewpoint Depression Visibility Wind Speed Wind Dir Waves Ship Positions

Wild Orchid 1

Last reported at 2017-Sep-15 15:06 UTC. Time now 2017-Sep-23 04:12 UTC.
Position N 43°32' E 007°07'.

Length 45 m; draft 2.8 m.

Type: Pleasure craft. MMSI: 215586000.

Date/timePositionNaut miles runAvg speedWind from/ knotsBaromVisibWave heightAir tempDewpointWater temp
2017-Sep-15 15:06N 43°32' E 007°07'113.4
2017-Sep-15 15:00N 43°32' E 007°09'6012.8
2017-Sep-15 10:18N 43°31' E 008°32'1710.9
2017-Sep-15 08:46N 43°19' E 008°49'310.9
2017-Sep-15 08:30N 43°17' E 008°52'610.8
2017-Sep-15 07:58N 43°14' E 008°59'4 7.7
2017-Sep-15 07:29N 43°11' E 009°02'5 9.5
2017-Sep-15 07:00N 43°09' E 009°07'1811.6
2017-Sep-15 05:28N 43°01' E 009°29'3 5.7
2017-Sep-15 04:56N 42°58' E 009°27'0 0.0
2017-Sep-15 04:28N 42°58' E 009°27'0 0.0
2017-Sep-15 03:26N 42°58' E 009°27'0 0.0
2017-Sep-15 03:00N 42°58' E 009°27'0 0.0
2017-Sep-15 02:11N 42°58' E 009°27'0 0.0
2017-Sep-15 01:49N 42°58' E 009°27'0 0.0
2017-Sep-15 01:17N 42°58' E 009°27'0 0.0
2017-Sep-15 00:45N 42°58' E 009°27'0 0.0
2017-Sep-15 00:29N 42°58' E 009°28'40011.0
2017-Sep-13 12:16N 38°15' E 015°40'310.4
2017-Sep-13 12:00N 38°14' E 015°37'  
2017-Sep-09 23:29N 37°46' E 015°47'813.0
2017-Sep-09 22:53N 37°47' E 015°57'33712.1
2017-Sep-08 19:00N 37°54' E 023°04'713.2
2017-Sep-08 18:30N 37°52' E 023°12'713.0
2017-Sep-08 18:00N 37°51' E 023°20'612.9
2017-Sep-08 17:31N 37°50' E 023°28'611.9
2017-Sep-08 17:01N 37°52' E 023°35'5 9.2
2017-Sep-08 16:30N 37°56' E 023°39'1 1.1
2017-Sep-08 15:59N 37°56' E 023°39'0 0.0
2017-Sep-08 15:29N 37°56' E 023°39'0 0.0
2017-Sep-08 14:59N 37°56' E 023°39'0 0.0
2017-Sep-08 14:29N 37°56' E 023°39'0 0.0
2017-Sep-08 13:56N 37°56' E 023°39'0 0.0
2017-Sep-08 13:26N 37°56' E 023°39'0 0.0
2017-Sep-08 12:53N 37°56' E 023°39'0 0.0
2017-Sep-08 12:29N 37°56' E 023°39'0 0.0
2017-Sep-08 11:59N 37°56' E 023°39'0 0.0
2017-Sep-08 11:29N 37°56' E 023°39'0 0.0
2017-Sep-08 10:59N 37°56' E 023°39'0 0.0
2017-Sep-08 10:29N 37°56' E 023°39'0 0.0
2017-Sep-08 09:59N 37°56' E 023°39'0 0.0
2017-Sep-08 09:26N 37°56' E 023°39'0 0.0
2017-Sep-08 08:59N 37°56' E 023°39'0 0.0
2017-Sep-08 08:29N 37°56' E 023°39'0 0.0
2017-Sep-08 07:59N 37°56' E 023°39'0 0.0
2017-Sep-08 07:29N 37°56' E 023°39'0 0.0
2017-Sep-08 06:59N 37°56' E 023°39'0 0.0
2017-Sep-08 06:29N 37°56' E 023°39'0 0.0
2017-Sep-08 05:59N 37°56' E 023°39'0 0.0
2017-Sep-08 05:29N 37°56' E 023°39'0 0.0
2017-Sep-08 04:59N 37°56' E 023°39'0 0.0
2017-Sep-08 04:29N 37°56' E 023°39'0 0.0
2017-Sep-08 03:59N 37°56' E 023°39'0 0.0
2017-Sep-08 03:29N 37°56' E 023°39'0 0.0
2017-Sep-08 02:59N 37°56' E 023°39'0 0.0
2017-Sep-08 02:29N 37°56' E 023°39'0 0.0
2017-Sep-08 01:59N 37°56' E 023°39'0 0.0
2017-Sep-08 01:29N 37°56' E 023°39'0 0.0
2017-Sep-08 00:59N 37°56' E 023°39'0 0.0
2017-Sep-08 00:29N 37°56' E 023°39'0 0.0
2017-Sep-07 23:59N 37°56' E 023°39'0 0.0
2017-Sep-07 23:29N 37°56' E 023°39'0 0.0
2017-Sep-07 22:59N 37°56' E 023°39'0 0.0
2017-Sep-07 22:29N 37°56' E 023°39'0 0.0
2017-Sep-07 21:59N 37°56' E 023°39'0 0.0
2017-Sep-07 21:29N 37°56' E 023°39'0 0.0
2017-Sep-07 20:59N 37°56' E 023°39'0 0.0
2017-Sep-07 20:29N 37°56' E 023°39'0 0.0
2017-Sep-07 19:56N 37°56' E 023°39'0 0.0
2017-Sep-07 19:29N 37°56' E 023°39'0 0.0
2017-Sep-07 18:59N 37°56' E 023°39'0 0.0
2017-Sep-07 18:29N 37°56' E 023°39'0 0.0
2017-Sep-07 17:59N 37°56' E 023°39'0 0.0
2017-Sep-07 17:29N 37°56' E 023°39'0 0.0
2017-Sep-07 16:59N 37°56' E 023°39'0 0.0
2017-Sep-07 16:29N 37°56' E 023°39'0 0.0
2017-Sep-07 15:59N 37°56' E 023°39'0 0.0
2017-Sep-07 15:30N 37°56' E 023°39'0 0.0
2017-Sep-07 15:00N 37°56' E 023°39'0 0.0
2017-Sep-07 14:30N 37°56' E 023°39'0 0.0
2017-Sep-07 14:00N 37°56' E 023°39'1 1.4
2017-Sep-07 13:30N 37°55' E 023°39'611.1
2017-Sep-07 13:00N 37°50' E 023°36'612.8
2017-Sep-07 12:30N 37°44' E 023°35'713.2
2017-Sep-07 12:00N 37°37' E 023°34'612.8
2017-Sep-07 11:30N 37°31' E 023°34'611.8
2017-Sep-07 11:00N 37°26' E 023°32'5 0.2
2017-Sep-06 06:28N 37°30' E 023°34'612.6
2017-Sep-06 06:00N 37°36' E 023°34'612.4
2017-Sep-06 05:31N 37°42' E 023°35'612.7
2017-Sep-06 05:01N 37°49' E 023°35'612.5
2017-Sep-06 04:31N 37°55' E 023°38'2 2.9
2017-Sep-06 04:00N 37°56' E 023°39'0 0.0
2017-Sep-06 03:30N 37°56' E 023°39'0 0.0
2017-Sep-06 03:00N 37°56' E 023°39'0 0.0
2017-Sep-06 02:29N 37°56' E 023°39'0 0.0
2017-Sep-06 01:59N 37°56' E 023°39'0 0.0
2017-Sep-06 01:29N 37°56' E 023°39'0 0.0
2017-Sep-06 01:00N 37°56' E 023°39'0 0.0
2017-Sep-06 00:30N 37°56' E 023°39'0 0.0
2017-Sep-06 00:00N 37°56' E 023°39'0 0.0
2017-Sep-05 23:30N 37°56' E 023°39'0 0.0
2017-Sep-05 22:59N 37°56' E 023°39'0 0.0
2017-Sep-05 22:29N 37°56' E 023°39'0 0.0
2017-Sep-05 21:59N 37°56' E 023°39'0 0.0
2017-Sep-05 21:29N 37°56' E 023°39'0 0.0
2017-Sep-05 20:59N 37°56' E 023°39'0 0.0
2017-Sep-05 20:29N 37°56' E 023°39'0 0.0
2017-Sep-05 20:00N 37°56' E 023°39'0 0.0
2017-Sep-05 19:29N 37°56' E 023°39'0 0.0
2017-Sep-05 18:59N 37°56' E 023°39'0 0.0
2017-Sep-05 18:29N 37°56' E 023°39'0 0.0
2017-Sep-05 17:59N 37°56' E 023°39'0 0.0
2017-Sep-05 17:29N 37°56' E 023°39'0 0.0
2017-Sep-05 17:00N 37°56' E 023°39'0 0.0
2017-Sep-05 16:29N 37°56' E 023°39'0 0.0
2017-Sep-05 15:59N 37°56' E 023°39'0 0.0
2017-Sep-05 15:29N 37°56' E 023°39'  

Dump ship's entire track history